Terminal Aerodrome Forecast
Issued by NWS

Home | Current Version | Previous Version | Text Only | Print | Product List | Glossary On
Versions: 1 2 3 4 5 6 7 8 9 10 11 12 13 14 15 16 17 18 19 20 21
000
FTAK31 PAFA 191138
TAFASC
TAF
PASC 191138Z 1912/2012 04008KT 2SM BR VCSH OVC003
     FM191700 03005KT 5SM BR VCSH OVC007
     FM192000 05007KT P6SM VCSH OVC015
     FM200200 06010KT P6SM OVC007=

USA.gov is the U.S. government's official web portal to all federal, state and local government web resources and services.